Huvudsida
METAR-TAF:

METAR-TAF

Flygplatser :

Bagdads internationella flygplats

Bagdad, Irak

latitud: 33-15-45N, longitud: 44-14-04E, höjd: 35 m

Aktuellt väderrapport

Denna rapport gjordes för 33 minuter sedan, klockan 02:00 UTC
Vind 6 kt från nordväst
Temperatur 24°C
Fuktighet 41%
Tryck 1008 hPa
Sikt 10 km eller mer
Inga moln under 1 500 m eller inga cumulonimbus

METAR: ORBI 230200Z 31006KT CAVOK 24/10 Q1008

Tid: 05:33 (02:33 UTC)

Väderprognos

Denna rapport gjordes för 4 timmar och 33 minuter sedan, klockan 22:00 UTC
Prognos gäller från 23 kl. 00 UTC till 23 kl. 24 UTC
Vind 8 kt från nordväst
Sikt 10 km eller mer
Inga moln under 1 500 m eller inga cumulonimbus

TAF: ORBI 222200Z 2300/2324 31008KT CAVOK

Aktuella väderrapporter och prognoser från 4000 flygplatser (METAR- och TAF-rapporter).

De tillgängliga stationerna syns som gula och röda prickar på kartan.

För musen över prickarna för att se namnen på stationerna.

Klicka sedan för att få väderrapporter och prognoser.

För att ändra kartan: Klicka på de gröna knapparna med ett svart kors på för att zooma in; den gröna knappen med ett streck på för att zooma ut; eller på de gröna pilarna för angränsande kartor.


METAR-TAF: